Time;durP1;ratioP1;P1;durP2;ratioP2;P2;SDS_P1;SDS_P2;PMS_P1;PMS_P2;Temp;Humidity;BMP_temperature;BMP_pressure;BME280_temperature;BME280_humidity;BME280_pressure;Samples;Min_cycle;Max_cycle;Signal;HPM_P1;HPM_P2
2022/01/20 00:03:18;;;;;;;18.70;2.67;;;5.50;99.90;;;;;;5011431;28;20061;-63
2022/01/20 00:27:12;;;;;;;8.82;1.58;;;5.70;99.90;;;;;;5010918;28;20448;-63
2022/01/20 00:30:14;;;;;;;8.60;1.30;;;5.70;99.90;;;;;;5010304;28;20052;-63
2022/01/20 00:33:42;;;;;;;11.65;1.40;;;5.70;99.90;;;;;;4998327;28;20524;-63
2022/01/20 00:37:14;;;;;;;7.18;1.00;;;5.70;99.90;;;;;;4985986;28;20060;-63
2022/01/20 00:38:16;;;;;;;9.85;1.52;;;5.70;99.90;;;;;;4987777;28;20548;-63
2022/01/20 00:40:42;;;;;;;15.38;1.70;;;5.70;99.90;;;;;;5005874;28;20049;-63
2022/01/20 00:43:08;;;;;;;6.68;1.58;;;5.60;99.90;;;;;;4991517;28;20050;-63
2022/01/20 00:45:33;;;;;;;13.68;1.65;;;5.60;99.90;;;;;;4992218;28;20504;-63
2022/01/20 00:47:59;;;;;;;11.70;2.95;;;5.50;99.90;;;;;;5001921;28;20137;-63
2022/01/20 00:50:25;;;;;;;11.75;1.95;;;5.50;99.90;;;;;;4999487;28;20136;-62
2022/01/20 00:52:51;;;;;;;8.50;1.80;;;5.40;99.90;;;;;;4990910;28;20045;-63
2022/01/20 00:55:17;;;;;;;6.13;1.33;;;5.50;99.90;;;;;;4999219;28;20398;-63
2022/01/20 00:57:43;;;;;;;13.23;1.75;;;5.50;99.90;;;;;;4987536;28;20059;-63
2022/01/20 01:00:10;;;;;;;11.18;2.10;;;5.40;99.90;;;;;;5000607;28;20125;-63
2022/01/20 01:02:36;;;;;;;13.20;1.75;;;5.40;99.90;;;;;;5005767;28;20089;-63
2022/01/20 01:05:03;;;;;;;18.70;3.28;;;5.40;99.90;;;;;;4989900;28;20554;-63
2022/01/20 01:09:57;;;;;;;20.90;2.90;;;5.40;99.90;;;;;;4990396;28;20073;-63
2022/01/20 01:12:38;;;;;;;16.02;2.08;;;5.40;99.90;;;;;;4984335;28;20077;-63
2022/01/20 01:15:08;;;;;;;17.65;2.17;;;5.50;99.90;;;;;;4975419;28;20045;-63
2022/01/20 01:20:20;;;;;;;17.77;2.88;;;5.60;99.90;;;;;;4997757;28;20076;-63
2022/01/20 01:22:46;;;;;;;18.27;2.70;;;5.60;99.90;;;;;;5003813;28;20054;-63
2022/01/20 01:25:12;;;;;;;25.80;4.82;;;5.70;99.90;;;;;;4996245;28;20177;-63
2022/01/20 01:27:40;;;;;;;14.38;1.70;;;5.70;99.90;;;;;;5005942;28;20042;-63
2022/01/20 01:30:18;;;;;;;12.32;2.47;;;5.70;99.90;;;;;;5005595;28;20747;-64
2022/01/20 01:32:53;;;;;;;7.10;1.25;;;5.60;99.90;;;;;;5022805;28;20571;-63
2022/01/20 01:35:21;;;;;;;13.63;1.33;;;5.60;99.90;;;;;;5026984;28;20038;-63
2022/01/20 01:40:33;;;;;;;9.80;1.92;;;5.50;99.90;;;;;;5010823;28;20490;-63
2022/01/20 01:43:03;;;;;;;11.35;1.92;;;5.50;99.90;;;;;;5015982;28;20073;-63
2022/01/20 01:45:33;;;;;;;12.25;1.77;;;5.60;99.90;;;;;;5008814;28;20099;-63
2022/01/20 01:47:59;;;;;;;11.40;1.92;;;5.60;99.90;;;;;;5019292;28;20084;-63
2022/01/20 01:50:25;;;;;;;12.43;1.60;;;5.60;99.90;;;;;;5024686;28;20073;-63
2022/01/20 01:52:51;;;;;;;18.98;3.67;;;5.60;99.90;;;;;;5019700;28;20095;-63
2022/01/20 01:55:17;;;;;;;16.38;3.10;;;5.70;99.90;;;;;;5030401;28;20049;-63
2022/01/20 01:57:43;;;;;;;23.48;3.67;;;5.70;99.90;;;;;;5021457;28;20474;-63
2022/01/20 02:00:10;;;;;;;31.90;5.93;;;5.70;99.90;;;;;;4995202;28;20057;-63
2022/01/20 02:02:36;;;;;;;16.83;4.10;;;5.80;99.90;;;;;;5016405;28;20045;-63
2022/01/20 02:05:05;;;;;;;19.40;3.78;;;5.80;99.90;;;;;;5015381;28;20052;-63
2022/01/20 02:18:00;;;;;;;19.95;3.88;;;6.00;99.90;;;;;;5015106;28;20054;-63
2022/01/20 02:20:26;;;;;;;18.42;3.75;;;5.90;99.90;;;;;;5022567;28;20045;-63
2022/01/20 02:22:52;;;;;;;18.83;3.42;;;5.80;99.90;;;;;;5024155;28;20053;-63
2022/01/20 02:25:24;;;;;;;19.77;3.35;;;5.80;99.90;;;;;;5020688;28;20054;-63
2022/01/20 02:27:51;;;;;;;26.73;4.47;;;5.70;99.90;;;;;;5018533;28;20033;-63
2022/01/20 02:30:18;;;;;;;18.92;3.85;;;5.70;99.90;;;;;;5019709;28;20084;-63
2022/01/20 02:32:52;;;;;;;27.75;4.55;;;5.70;99.90;;;;;;5016820;28;20066;-63
2022/01/20 02:35:18;;;;;;;34.75;5.88;;;5.70;99.90;;;;;;5023522;28;20043;-63
2022/01/20 02:37:46;;;;;;;38.28;6.32;;;5.70;99.90;;;;;;5001736;28;20046;-63
2022/01/20 02:45:41;;;;;;;26.98;4.88;;;5.80;99.90;;;;;;5027055;28;20515;-63
2022/01/20 02:48:07;;;;;;;23.20;4.55;;;5.80;99.90;;;;;;5019955;28;20046;-63
2022/01/20 02:50:32;;;;;;;16.90;3.63;;;5.90;99.90;;;;;;5013409;28;20141;-63
2022/01/20 02:52:58;;;;;;;22.55;3.92;;;5.90;99.90;;;;;;5011988;28;20100;-63
2022/01/20 02:55:23;;;;;;;19.30;4.30;;;5.90;99.90;;;;;;5010795;28;20392;-63
2022/01/20 02:57:49;;;;;;;17.30;4.60;;;5.80;99.90;;;;;;5018212;28;20524;-63
2022/01/20 03:00:15;;;;;;;22.17;4.85;;;5.70;99.90;;;;;;5015383;28;20673;-63
2022/01/20 03:02:42;;;;;;;18.95;4.03;;;5.70;99.90;;;;;;5024518;28;20536;-63
2022/01/20 03:05:10;;;;;;;29.63;5.40;;;5.80;99.90;;;;;;5012162;28;20088;-63
2022/01/20 03:07:36;;;;;;;21.10;4.30;;;5.60;99.90;;;;;;5021913;28;20038;-63
2022/01/20 03:10:03;;;;;;;21.90;5.35;;;5.60;99.90;;;;;;5025238;28;20038;-63
2022/01/20 03:12:28;;;;;;;14.32;3.70;;;5.60;99.90;;;;;;5023126;28;20050;-63
2022/01/20 03:14:54;;;;;;;17.38;4.28;;;5.60;99.90;;;;;;5024387;28;20051;-63
2022/01/20 03:17:19;;;;;;;22.40;3.65;;;5.50;99.90;;;;;;5021546;28;20129;-63
2022/01/20 03:19:45;;;;;;;20.08;4.43;;;5.60;99.90;;;;;;5012637;28;20193;-63
2022/01/20 03:22:11;;;;;;;35.70;5.00;;;5.60;99.90;;;;;;5015054;28;20049;-63
2022/01/20 03:24:36;;;;;;;29.25;6.00;;;5.60;99.90;;;;;;5016778;28;20129;-63
2022/01/20 03:27:02;;;;;;;28.52;5.55;;;5.70;99.90;;;;;;5017901;28;20049;-63
2022/01/20 03:29:27;;;;;;;32.92;7.25;;;5.60;99.90;;;;;;5007011;28;20050;-63
2022/01/20 03:31:53;;;;;;;28.98;5.53;;;5.60;99.90;;;;;;5005334;28;20058;-63
2022/01/20 03:34:21;;;;;;;24.73;5.88;;;5.70;99.90;;;;;;5017010;28;20387;-63
2022/01/20 03:36:47;;;;;;;27.50;4.80;;;5.70;99.90;;;;;;5025920;28;20037;-63
2022/01/20 03:39:13;;;;;;;25.90;5.10;;;5.70;99.90;;;;;;5016712;28;20077;-63
2022/01/20 03:41:38;;;;;;;17.27;4.32;;;5.70;99.90;;;;;;5012943;28;20129;-63
2022/01/20 03:44:04;;;;;;;27.23;5.32;;;5.60;99.90;;;;;;5026061;28;20563;-63
2022/01/20 03:46:30;;;;;;;21.95;4.13;;;5.60;99.90;;;;;;5026773;28;20554;-63
2022/01/20 03:49:06;;;;;;;22.30;4.97;;;5.60;99.90;;;;;;5016777;28;20046;-63
2022/01/20 03:51:32;;;;;;;18.55;4.78;;;5.60;99.90;;;;;;5017844;28;20050;-63
2022/01/20 03:53:58;;;;;;;22.90;4.90;;;5.60;99.90;;;;;;5004008;28;20055;-63
2022/01/20 03:56:24;;;;;;;19.75;4.28;;;5.60;99.90;;;;;;5022628;28;20916;-63
2022/01/20 03:58:50;;;;;;;23.77;5.40;;;5.70;99.90;;;;;;5027656;28;20033;-63
2022/01/20 04:01:17;;;;;;;13.68;3.03;;;5.60;99.90;;;;;;5021228;28;20049;-63
2022/01/20 04:03:43;;;;;;;13.73;3.58;;;5.60;99.90;;;;;;5026371;28;20050;-63
2022/01/20 04:06:09;;;;;;;15.07;3.13;;;5.40;99.90;;;;;;5021367;28;20673;-63
2022/01/20 04:08:38;;;;;;;13.45;3.53;;;5.50;99.90;;;;;;5013204;28;20661;-63
2022/01/20 04:11:12;;;;;;;13.27;3.08;;;5.40;99.90;;;;;;5017263;28;20574;-63
2022/01/20 04:13:39;;;;;;;18.50;3.00;;;5.40;99.90;;;;;;5027721;28;20440;-63
2022/01/20 04:16:13;;;;;;;17.50;3.50;;;5.40;99.90;;;;;;5025132;28;20925;-63
2022/01/20 04:18:41;;;;;;;15.05;3.28;;;5.40;99.90;;;;;;5016706;28;20050;-63
2022/01/20 04:21:07;;;;;;;25.95;4.15;;;5.40;99.90;;;;;;5015250;28;20112;-63
2022/01/20 04:23:32;;;;;;;23.30;4.13;;;5.30;99.90;;;;;;5016851;28;20609;-63
2022/01/20 04:25:58;;;;;;;18.88;4.05;;;5.30;99.90;;;;;;5006393;28;20442;-63
2022/01/20 04:28:23;;;;;;;28.65;5.22;;;5.40;99.90;;;;;;5017647;28;20041;-63
2022/01/20 04:30:49;;;;;;;22.98;5.00;;;5.40;99.90;;;;;;5017010;28;20046;-63
2022/01/20 04:33:14;;;;;;;23.17;5.30;;;5.30;99.90;;;;;;5009656;28;20141;-63
2022/01/20 04:35:40;;;;;;;17.90;5.00;;;5.30;99.90;;;;;;5013388;28;20398;-63
2022/01/20 04:38:07;;;;;;;12.98;3.60;;;5.20;99.90;;;;;;5017530;28;20061;-63
2022/01/20 04:40:38;;;;;;;26.98;4.72;;;5.10;99.90;;;;;;5014134;28;20050;-63
2022/01/20 04:43:04;;;;;;;24.58;5.00;;;5.10;99.90;;;;;;5011708;28;20102;-63
2022/01/20 04:45:35;;;;;;;17.30;4.07;;;4.90;99.90;;;;;;5018203;28;20060;-63
2022/01/20 04:58:51;;;;;;;29.67;6.22;;;4.70;99.90;;;;;;5020062;28;20041;-63
2022/01/20 05:01:17;;;;;;;17.75;4.97;;;4.70;99.90;;;;;;5019286;28;20493;-63
2022/01/20 05:03:44;;;;;;;15.73;3.92;;;4.80;99.90;;;;;;5016222;28;20394;-63
2022/01/20 05:06:10;;;;;;;27.70;3.97;;;4.80;99.90;;;;;;5016104;28;20046;-63
2022/01/20 05:08:36;;;;;;;26.50;4.32;;;4.70;99.90;;;;;;5011059;28;20053;-63
2022/01/20 05:11:03;;;;;;;18.35;3.35;;;4.70;99.90;;;;;;5009322;28;20127;-63
2022/01/20 05:13:34;;;;;;;19.08;2.88;;;4.50;99.90;;;;;;5023331;28;20045;-63
2022/01/20 05:16:01;;;;;;;13.27;2.92;;;4.50;99.90;;;;;;5014795;28;20544;-63
2022/01/20 05:18:27;;;;;;;22.52;3.17;;;4.50;99.90;;;;;;5016876;28;20571;-63
2022/01/20 05:20:52;;;;;;;18.40;4.20;;;4.60;99.90;;;;;;5019256;28;20041;-63
2022/01/20 05:23:18;;;;;;;17.98;3.70;;;4.50;99.90;;;;;;5001091;28;20041;-63
2022/01/20 05:25:44;;;;;;;19.15;3.35;;;4.50;99.90;;;;;;5018899;28;20595;-63
2022/01/20 05:28:10;;;;;;;24.70;4.53;;;4.50;99.90;;;;;;5008606;28;20478;-63
2022/01/20 05:30:35;;;;;;;23.58;4.88;;;4.50;99.90;;;;;;5029124;28;20060;-63
2022/01/20 05:33:02;;;;;;;19.95;4.13;;;4.40;99.90;;;;;;5030722;28;20041;-62
2022/01/20 05:35:28;;;;;;;21.40;4.47;;;4.40;99.90;;;;;;5041352;28;20045;-63
2022/01/20 05:37:54;;;;;;;18.52;3.20;;;4.40;99.90;;;;;;4999568;28;20099;-63
2022/01/20 05:40:20;;;;;;;20.25;4.03;;;4.40;99.90;;;;;;5003879;28;20046;-63
2022/01/20 05:42:46;;;;;;;22.30;4.43;;;4.40;99.90;;;;;;5035396;28;20395;-63
2022/01/20 05:45:13;;;;;;;30.92;4.97;;;4.40;99.90;;;;;;5023552;28;20042;-63
2022/01/20 05:47:44;;;;;;;25.92;3.80;;;4.40;99.90;;;;;;5027031;28;20049;-63
2022/01/20 05:50:18;;;;;;;31.60;5.00;;;4.40;99.90;;;;;;5013045;28;20093;-63
2022/01/20 05:52:45;;;;;;;29.95;5.25;;;4.30;99.90;;;;;;5030999;28;20041;-63
2022/01/20 05:55:16;;;;;;;21.45;4.53;;;4.30;99.90;;;;;;5018492;28;20099;-63
2022/01/20 05:57:41;;;;;;;16.05;3.50;;;4.30;99.90;;;;;;5027446;28;20037;-63
2022/01/20 06:00:11;;;;;;;12.43;2.50;;;4.30;99.90;;;;;;5017386;28;20098;-63
2022/01/20 06:03:36;;;;;;;14.65;2.53;;;4.30;99.90;;;;;;5023716;28;20073;-63
2022/01/20 06:05:23;;;;;;;15.13;2.90;;;4.30;99.90;;;;;;5020056;28;20080;-63
2022/01/20 06:07:48;;;;;;;13.43;2.95;;;4.30;99.90;;;;;;5041546;28;20080;-63
2022/01/20 06:10:14;;;;;;;18.42;4.40;;;4.40;99.90;;;;;;5018377;28;20050;-63
2022/01/20 06:12:39;;;;;;;17.40;4.45;;;4.40;99.90;;;;;;5028246;28;20733;-63
2022/01/20 06:15:06;;;;;;;22.63;3.72;;;4.40;99.90;;;;;;5016226;28;20542;-63
2022/01/20 06:17:34;;;;;;;24.23;4.45;;;4.50;99.90;;;;;;5024020;28;20055;-63
2022/01/20 06:20:00;;;;;;;13.52;4.30;;;4.50;99.90;;;;;;5012707;28;20053;-63
2022/01/20 06:22:26;;;;;;;22.92;4.32;;;4.50;99.90;;;;;;5021406;28;20401;-63
2022/01/20 06:24:51;;;;;;;20.95;4.45;;;4.70;99.90;;;;;;5021910;28;20046;-63
2022/01/20 06:27:17;;;;;;;16.25;3.35;;;4.70;99.90;;;;;;5023822;28;20045;-63
2022/01/20 06:29:43;;;;;;;21.38;4.55;;;4.60;99.90;;;;;;5028243;28;20076;-63
2022/01/20 06:32:08;;;;;;;17.55;3.20;;;4.50;99.90;;;;;;4998500;28;20064;-63
2022/01/20 06:34:34;;;;;;;21.58;4.03;;;4.60;99.90;;;;;;5022908;28;20049;-63
2022/01/20 06:37:00;;;;;;;17.52;3.80;;;4.60;99.90;;;;;;5021881;28;20042;-63
2022/01/20 06:39:25;;;;;;;15.00;5.00;;;4.60;99.90;;;;;;5012921;28;20099;-63
2022/01/20 06:41:51;;;;;;;23.10;5.10;;;4.80;99.90;;;;;;5016561;28;20144;-63
2022/01/20 06:44:18;;;;;;;24.17;5.60;;;4.70;99.90;;;;;;5022901;28;20037;-63
2022/01/20 06:46:44;;;;;;;25.52;4.72;;;4.60;99.90;;;;;;5015911;28;20042;-62
2022/01/20 06:49:10;;;;;;;22.17;4.13;;;4.50;99.90;;;;;;5016445;28;20102;-63
2022/01/20 06:51:36;;;;;;;38.45;6.28;;;4.40;99.90;;;;;;5025435;28;20459;-63
2022/01/20 06:54:02;;;;;;;33.42;4.55;;;4.30;99.90;;;;;;5010326;28;20054;-63
2022/01/20 06:56:27;;;;;;;22.02;5.82;;;4.30;99.90;;;;;;5022097;28;20490;-63
2022/01/20 06:58:53;;;;;;;28.48;5.25;;;4.40;99.90;;;;;;5018214;28;20053;-63
2022/01/20 07:01:18;;;;;;;23.20;6.10;;;4.30;99.90;;;;;;5015090;28;20048;-63
2022/01/20 07:03:44;;;;;;;25.88;5.53;;;4.40;99.90;;;;;;5023547;28;20123;-63
2022/01/20 07:06:09;;;;;;;20.38;3.97;;;4.40;99.90;;;;;;5029240;28;20719;-63
2022/01/20 07:08:35;;;;;;;21.98;4.07;;;4.30;99.90;;;;;;5024473;28;20550;-63
2022/01/20 07:11:01;;;;;;;23.55;3.92;;;4.30;99.90;;;;;;5015482;28;20053;-63
2022/01/20 07:13:26;;;;;;;27.20;4.43;;;4.30;99.90;;;;;;5022990;28;20038;-63
2022/01/20 07:15:52;;;;;;;12.80;3.65;;;4.20;99.90;;;;;;5018705;28;20070;-63
2022/01/20 07:18:17;;;;;;;22.42;4.15;;;4.40;99.90;;;;;;5014432;28;20124;-63
2022/01/20 07:20:43;;;;;;;23.23;4.15;;;4.50;99.90;;;;;;5018831;28;20045;-63
2022/01/20 07:23:08;;;;;;;16.90;3.88;;;4.60;99.90;;;;;;5019838;28;20053;-63
2022/01/20 07:25:34;;;;;;;29.67;4.75;;;4.80;99.90;;;;;;5012184;28;20042;-63
2022/01/20 07:27:59;;;;;;;26.23;3.80;;;4.80;99.90;;;;;;5011766;28;20037;-63
2022/01/20 07:30:25;;;;;;;24.52;4.70;;;4.80;99.90;;;;;;5014799;28;20058;-63
2022/01/20 07:32:50;;;;;;;27.08;4.88;;;4.80;99.90;;;;;;5021059;28;20077;-63
2022/01/20 07:35:16;;;;;;;27.42;4.93;;;4.90;99.90;;;;;;5028887;28;20706;-64
2022/01/20 07:37:42;;;;;;;29.60;5.80;;;4.90;99.90;;;;;;5026445;28;20115;-63
2022/01/20 07:40:08;;;;;;;28.58;4.18;;;4.90;99.90;;;;;;5027995;28;20481;-63
2022/01/20 07:42:33;;;;;;;20.83;4.22;;;5.10;99.90;;;;;;5019975;28;20056;-63
2022/01/20 07:44:59;;;;;;;16.52;3.45;;;5.00;99.90;;;;;;5026448;28;20719;-63
2022/01/20 07:47:25;;;;;;;21.27;4.53;;;4.90;99.90;;;;;;5013672;28;20088;-63
2022/01/20 07:49:50;;;;;;;21.70;3.95;;;5.00;99.90;;;;;;5022526;28;20124;-63
2022/01/20 07:52:16;;;;;;;18.60;3.80;;;4.90;99.90;;;;;;5023148;28;20092;-63
2022/01/20 07:54:41;;;;;;;22.27;4.95;;;5.10;99.90;;;;;;5019207;28;20049;-63
2022/01/20 07:57:07;;;;;;;23.95;5.30;;;5.00;99.90;;;;;;5010699;28;20107;-63
2022/01/20 07:59:33;;;;;;;30.83;6.15;;;5.10;99.90;;;;;;5023438;28;20068;-63
2022/01/20 08:01:59;;;;;;;20.27;4.95;;;4.90;99.90;;;;;;5028633;28;20484;-63
2022/01/20 08:04:25;;;;;;;22.65;3.97;;;4.90;99.90;;;;;;5017254;28;20054;-63
2022/01/20 08:06:50;;;;;;;18.73;4.30;;;4.90;99.90;;;;;;5022411;28;20057;-63
2022/01/20 08:09:16;;;;;;;12.43;2.92;;;4.90;99.90;;;;;;5028390;28;20665;-63
2022/01/20 08:11:42;;;;;;;11.18;3.10;;;4.90;99.90;;;;;;5014878;28;20033;-63
2022/01/20 08:14:07;;;;;;;15.85;4.25;;;4.90;99.90;;;;;;5019602;28;20444;-63
2022/01/20 08:16:33;;;;;;;13.02;3.42;;;4.80;99.90;;;;;;5025915;28;20034;-63
2022/01/20 08:18:59;;;;;;;14.30;3.30;;;4.80;99.90;;;;;;5017781;28;20053;-63
2022/01/20 08:21:24;;;;;;;16.50;3.17;;;4.80;99.90;;;;;;5027256;28;20042;-63
2022/01/20 08:23:50;;;;;;;20.83;3.30;;;5.00;99.90;;;;;;5009574;28;20352;-63
2022/01/20 08:26:15;;;;;;;16.52;3.30;;;5.00;99.90;;;;;;5018664;28;20108;-63
2022/01/20 08:28:42;;;;;;;18.40;3.22;;;5.00;99.90;;;;;;5027324;28;20541;-63
2022/01/20 08:31:08;;;;;;;14.55;3.55;;;5.00;99.90;;;;;;5025163;28;20061;-63
2022/01/20 08:33:34;;;;;;;20.58;3.90;;;5.10;99.90;;;;;;5018603;28;20054;-63
2022/01/20 08:35:59;;;;;;;20.27;5.03;;;5.00;99.90;;;;;;5014131;28;20397;-63
2022/01/20 08:38:25;;;;;;;16.65;3.85;;;5.10;99.90;;;;;;5013389;28;20049;-62
2022/01/20 08:40:52;;;;;;;20.08;3.60;;;5.10;99.90;;;;;;5036505;28;20048;-63
2022/01/20 08:43:17;;;;;;;16.02;2.92;;;5.10;99.90;;;;;;5015023;28;20037;-63
2022/01/20 08:45:44;;;;;;;16.17;3.83;;;5.20;99.90;;;;;;5020836;28;20041;-63
2022/01/20 08:48:12;;;;;;;26.15;4.03;;;5.20;99.90;;;;;;5027906;28;20199;-63
2022/01/20 08:50:39;;;;;;;14.57;3.80;;;5.40;99.90;;;;;;5026365;28;20493;-63
2022/01/20 08:53:05;;;;;;;15.18;3.47;;;5.20;99.90;;;;;;5030807;28;20046;-63
2022/01/20 08:55:31;;;;;;;16.27;3.15;;;5.10;99.90;;;;;;5019629;28;20033;-63
2022/01/20 08:57:58;;;;;;;23.10;4.75;;;5.20;99.90;;;;;;5022065;28;20050;-63
2022/01/20 09:00:28;;;;;;;21.25;4.68;;;5.10;99.90;;;;;;4996083;28;20061;-63
2022/01/20 09:02:54;;;;;;;15.40;3.22;;;5.10;99.90;;;;;;5015706;28;20482;-63
2022/01/20 09:05:20;;;;;;;20.50;4.05;;;5.20;99.90;;;;;;5009491;28;20098;-63
2022/01/20 09:07:46;;;;;;;17.48;3.33;;;5.10;99.90;;;;;;5016332;28;20068;-63
2022/01/20 09:10:19;;;;;;;16.52;4.13;;;5.10;99.90;;;;;;5032871;28;20144;-63
2022/01/20 09:15:33;;;;;;;23.25;4.72;;;5.10;99.90;;;;;;5046787;28;20053;-63
2022/01/20 09:18:08;;;;;;;19.67;4.75;;;5.10;99.90;;;;;;5027563;28;20046;-63
2022/01/20 09:20:36;;;;;;;13.07;4.05;;;5.10;99.90;;;;;;5031950;28;20195;-62
2022/01/20 09:23:03;;;;;;;24.88;4.30;;;5.10;99.90;;;;;;5034780;28;20044;-63
2022/01/20 09:25:28;;;;;;;27.98;4.03;;;5.10;99.90;;;;;;5012882;28;20133;-63
2022/01/20 09:27:57;;;;;;;19.52;4.70;;;5.20;99.90;;;;;;5012995;28;20046;-63
2022/01/20 09:30:25;;;;;;;21.35;4.30;;;5.20;99.90;;;;;;5027526;28;20136;-63
2022/01/20 09:33:01;;;;;;;14.77;3.08;;;5.30;99.90;;;;;;5017862;28;20049;-63
2022/01/20 09:35:31;;;;;;;17.27;4.32;;;5.40;99.90;;;;;;5023769;28;20038;-63
2022/01/20 09:37:58;;;;;;;14.48;3.03;;;5.50;99.90;;;;;;5016220;28;20133;-62
2022/01/20 09:40:25;;;;;;;13.55;2.90;;;5.60;99.90;;;;;;5018961;28;20374;-63
2022/01/20 09:42:50;;;;;;;12.70;4.03;;;5.60;99.90;;;;;;5022666;28;20128;-63
2022/01/20 09:45:16;;;;;;;19.70;3.85;;;5.60;99.90;;;;;;5018678;28;20042;-63
2022/01/20 09:47:46;;;;;;;18.27;3.90;;;5.60;99.90;;;;;;5011644;28;20046;-63
2022/01/20 09:50:15;;;;;;;33.10;5.40;;;5.70;99.90;;;;;;5022730;28;20590;-63
2022/01/20 09:52:41;;;;;;;17.15;3.63;;;5.70;99.90;;;;;;5021207;28;20108;-63
2022/01/20 09:55:08;;;;;;;21.02;3.97;;;5.70;99.90;;;;;;5020610;28;20038;-63
2022/01/20 09:57:33;;;;;;;17.27;3.85;;;5.80;99.90;;;;;;5018078;28;20533;-63
2022/01/20 10:00:00;;;;;;;22.85;3.92;;;5.80;99.90;;;;;;5024157;28;20059;-63
2022/01/20 10:02:25;;;;;;;30.38;4.72;;;5.80;99.90;;;;;;5015129;28;20054;-63
2022/01/20 10:04:52;;;;;;;13.32;3.53;;;5.60;99.90;;;;;;5023014;28;20071;-63
2022/01/20 10:07:18;;;;;;;19.45;3.55;;;5.60;99.90;;;;;;5020000;28;20042;-63
2022/01/20 10:09:49;;;;;;;21.55;4.25;;;5.60;99.90;;;;;;5016885;28;20502;-62
2022/01/20 10:12:16;;;;;;;24.15;4.97;;;5.60;99.90;;;;;;5025353;28;20091;-63
2022/01/20 10:14:57;;;;;;;21.08;4.03;;;5.60;99.90;;;;;;5011964;28;20054;-63
2022/01/20 10:17:31;;;;;;;20.63;4.00;;;5.50;99.90;;;;;;5014737;28;20056;-63
2022/01/20 10:20:04;;;;;;;24.80;5.57;;;5.70;99.90;;;;;;5025522;28;20080;-63
2022/01/20 10:22:31;;;;;;;22.33;4.80;;;5.70;99.90;;;;;;5026272;28;20091;-63
2022/01/20 10:25:08;;;;;;;29.50;6.97;;;6.00;99.90;;;;;;5019384;28;20049;-63
2022/01/20 10:27:55;;;;;;;19.25;3.78;;;6.10;99.90;;;;;;5022224;28;20045;-63
2022/01/20 10:30:24;;;;;;;19.67;3.88;;;6.10;99.90;;;;;;5023423;28;20054;-63
2022/01/20 10:32:54;;;;;;;22.35;4.75;;;6.00;99.90;;;;;;5030807;28;20063;-63
2022/01/20 10:35:26;;;;;;;19.83;5.47;;;5.90;99.90;;;;;;5031117;28;20053;-63
2022/01/20 10:38:15;;;;;;;21.52;4.47;;;6.10;99.90;;;;;;5021699;28;20041;-63
2022/01/20 10:40:51;;;;;;;19.63;4.25;;;6.10;99.90;;;;;;5028562;28;20058;-63
2022/01/20 10:43:25;;;;;;;16.52;3.90;;;6.30;99.90;;;;;;5026067;28;20106;-62
2022/01/20 10:46:10;;;;;;;19.80;3.75;;;6.50;99.90;;;;;;5010992;28;20053;-63
2022/01/20 10:48:37;;;;;;;27.52;4.00;;;6.50;99.90;;;;;;5017081;28;20045;-63
2022/01/20 10:51:02;;;;;;;19.10;4.22;;;6.50;99.90;;;;;;5015142;28;20459;-63
2022/01/20 10:53:28;;;;;;;30.63;6.13;;;6.60;99.90;;;;;;5021550;28;20045;-63
2022/01/20 10:56:05;;;;;;;15.02;4.45;;;6.30;99.90;;;;;;5011691;28;20048;-63
2022/01/20 10:58:31;;;;;;;19.52;3.83;;;6.20;99.90;;;;;;5020156;28;20033;-62
2022/01/20 11:00:57;;;;;;;21.70;5.05;;;6.10;99.90;;;;;;5021651;28;20462;-63
2022/01/20 11:03:27;;;;;;;22.73;4.90;;;6.30;99.90;;;;;;5023259;28;20057;-63
2022/01/20 11:05:54;;;;;;;17.83;3.72;;;6.10;99.90;;;;;;5004355;28;20049;-63
2022/01/20 11:08:21;;;;;;;20.20;4.25;;;6.30;99.90;;;;;;5018364;28;20042;-63
2022/01/20 11:10:46;;;;;;;20.35;4.03;;;6.50;99.90;;;;;;5018364;28;20044;-63
2022/01/20 11:13:15;;;;;;;18.10;3.95;;;6.50;99.90;;;;;;5028531;28;20037;-63
2022/01/20 11:15:41;;;;;;;17.23;3.88;;;6.50;99.90;;;;;;5017020;28;20410;-62
2022/01/20 11:18:11;;;;;;;19.60;3.65;;;6.30;99.90;;;;;;5022072;28;20051;-62
2022/01/20 11:20:47;;;;;;;24.02;4.03;;;6.20;99.90;;;;;;5029430;28;20041;-62
2022/01/20 11:23:13;;;;;;;24.33;4.75;;;6.00;99.90;;;;;;5014008;28;20049;-62
2022/01/20 11:25:43;;;;;;;20.25;4.20;;;6.00;99.90;;;;;;5007397;28;20875;-62
2022/01/20 11:28:09;;;;;;;16.05;2.67;;;6.00;99.90;;;;;;5023192;28;20045;-62
2022/01/20 11:30:40;;;;;;;18.50;3.25;;;5.80;99.90;;;;;;5021476;28;20576;-63
2022/01/20 11:33:13;;;;;;;26.58;4.32;;;6.00;99.90;;;;;;5024331;28;20147;-62
2022/01/20 11:35:45;;;;;;;18.15;4.20;;;6.20;99.90;;;;;;5021531;28;20056;-62
2022/01/20 11:38:14;;;;;;;15.73;3.53;;;6.30;99.90;;;;;;5029506;28;20075;-62
2022/01/20 11:40:58;;;;;;;32.33;5.90;;;6.50;99.90;;;;;;5027626;28;20492;-63
2022/01/20 11:43:39;;;;;;;16.83;3.33;;;6.70;99.90;;;;;;5016011;28;20050;-62
2022/01/20 11:46:15;;;;;;;28.13;4.53;;;6.70;99.90;;;;;;5024745;28;20045;-64
2022/01/20 11:49:05;;;;;;;16.38;3.70;;;6.80;99.90;;;;;;5022280;28;20056;-63
2022/01/20 11:51:51;;;;;;;21.73;3.53;;;6.70;99.90;;;;;;5026987;28;20050;-63
2022/01/20 11:54:29;;;;;;;20.05;3.65;;;6.80;99.90;;;;;;5028460;28;20473;-63
2022/01/20 11:57:11;;;;;;;22.30;4.97;;;6.50;99.90;;;;;;5018132;28;20050;-63
2022/01/20 11:59:42;;;;;;;30.08;5.10;;;6.10;99.90;;;;;;5018329;28;20746;-63
2022/01/20 12:02:09;;;;;;;16.30;3.53;;;6.10;99.90;;;;;;5025311;28;20502;-63
2022/01/20 12:04:37;;;;;;;24.02;3.70;;;6.00;99.90;;;;;;5012400;28;20079;-63
2022/01/20 12:07:04;;;;;;;19.63;3.78;;;6.20;99.90;;;;;;5013433;28;20056;-63
2022/01/20 12:09:35;;;;;;;22.13;4.18;;;6.50;99.90;;;;;;5012897;28;20077;-63
2022/01/20 12:12:03;;;;;;;14.43;3.28;;;6.30;99.90;;;;;;5023116;28;20065;-63
2022/01/20 12:14:38;;;;;;;24.23;6.22;;;6.30;99.90;;;;;;5011234;28;20058;-63
2022/01/20 12:17:11;;;;;;;26.42;5.55;;;6.50;99.90;;;;;;5005568;28;20053;-63
2022/01/20 12:19:37;;;;;;;15.77;3.90;;;6.70;99.90;;;;;;5014317;28;20077;-63
2022/01/20 12:22:05;;;;;;;16.13;3.25;;;6.60;99.90;;;;;;5022675;28;20498;-63
2022/01/20 12:24:31;;;;;;;23.88;4.30;;;6.20;99.90;;;;;;5015594;28;20046;-63
2022/01/20 12:26:57;;;;;;;24.35;4.95;;;6.00;99.90;;;;;;5025980;28;20055;-63
2022/01/20 12:29:33;;;;;;;15.20;3.60;;;5.80;99.90;;;;;;5015578;28;20037;-63
2022/01/20 12:32:00;;;;;;;23.88;4.15;;;5.60;99.90;;;;;;5041758;28;20053;-63
2022/01/20 12:34:26;;;;;;;16.23;2.78;;;5.50;99.90;;;;;;5030628;28;20092;-63
2022/01/20 12:36:52;;;;;;;16.83;3.45;;;5.60;99.90;;;;;;5014219;28;20054;-64
2022/01/20 12:39:39;;;;;;;10.93;1.95;;;5.60;99.90;;;;;;5019842;28;20053;-63
2022/01/20 12:42:07;;;;;;;17.67;3.88;;;5.70;99.90;;;;;;5028279;28;20042;-63
2022/01/20 12:44:49;;;;;;;14.93;3.63;;;5.70;99.90;;;;;;5034289;28;20053;-63
2022/01/20 12:47:17;;;;;;;9.20;2.70;;;6.00;99.90;;;;;;5038098;28;20045;-63
2022/01/20 12:49:43;;;;;;;19.52;4.07;;;6.30;99.90;;;;;;5020984;28;20041;-63
2022/01/20 12:52:10;;;;;;;17.10;4.32;;;6.60;99.90;;;;;;5032958;28;20049;-63
2022/01/20 12:54:36;;;;;;;22.35;3.17;;;6.80;99.90;;;;;;5028031;28;20072;-63
2022/01/20 12:57:05;;;;;;;18.98;4.47;;;6.70;99.90;;;;;;5027973;28;20090;-63
2022/01/20 12:59:36;;;;;;;24.52;5.57;;;6.70;99.90;;;;;;5043386;28;20045;-63
2022/01/20 13:02:15;;;;;;;21.27;4.40;;;6.80;99.90;;;;;;5026379;28;20076;-63
2022/01/20 13:04:41;;;;;;;19.55;3.92;;;7.10;99.90;;;;;;5019351;28;20092;-63
2022/01/20 13:07:10;;;;;;;28.98;5.10;;;7.60;99.90;;;;;;5028305;28;20041;-63
2022/01/20 13:09:41;;;;;;;15.98;3.65;;;8.00;99.90;;;;;;5007276;28;20045;-63
2022/01/20 13:12:07;;;;;;;16.77;3.10;;;8.00;99.90;;;;;;5019500;28;20127;-63
2022/01/20 13:14:47;;;;;;;11.57;1.98;;;7.90;99.90;;;;;;5018071;28;20057;-63
2022/01/20 13:17:19;;;;;;;15.82;2.78;;;8.20;99.90;;;;;;5022317;28;20057;-63
2022/01/20 13:19:47;;;;;;;11.30;2.20;;;8.60;99.90;;;;;;5021512;28;20057;-63
2022/01/20 13:22:23;;;;;;;18.73;3.00;;;8.90;99.90;;;;;;5012488;28;20364;-63
2022/01/20 13:24:48;;;;;;;11.73;2.15;;;8.60;99.90;;;;;;5010144;28;20081;-64
2022/01/20 13:27:14;;;;;;;11.02;2.17;;;8.30;99.90;;;;;;5022637;28;20049;-63
2022/01/20 13:29:45;;;;;;;13.82;1.80;;;8.00;99.90;;;;;;5028008;28;20045;-64
2022/01/20 13:32:12;;;;;;;8.52;2.00;;;8.20;99.90;;;;;;5026391;28;20049;-64
2022/01/20 13:34:38;;;;;;;14.13;2.55;;;8.40;99.90;;;;;;5027038;28;20090;-63
2022/01/20 13:37:04;;;;;;;15.07;2.35;;;8.60;99.90;;;;;;5027109;28;20489;-64
2022/01/20 13:39:33;;;;;;;14.85;3.08;;;8.70;99.90;;;;;;5021381;28;20548;-64
2022/01/20 13:42:18;;;;;;;9.43;2.20;;;8.70;99.90;;;;;;5011584;28;20052;-63
2022/01/20 13:45:03;;;;;;;11.15;1.83;;;9.00;99.90;;;;;;5027859;28;20095;-64
2022/01/20 13:47:28;;;;;;;14.82;2.38;;;9.00;99.90;;;;;;5025610;28;20080;-63
2022/01/20 13:49:56;;;;;;;11.15;3.67;;;8.90;99.90;;;;;;5013855;28;20409;-64
2022/01/20 13:52:22;;;;;;;22.73;3.60;;;8.50;99.90;;;;;;5012613;28;20444;-64
2022/01/20 13:54:52;;;;;;;20.45;5.15;;;8.20;99.90;;;;;;5023110;28;20049;-64